Terminal Aerodrome Forecast
Issued by NWS Blacksburg, VA

Current Version | Previous Version | Graphics & Text | Print | Product List | Glossary On
Versions: 1 2 3 4 5 6 7 8 9 10 11 12 13 14 15 16 17 18
000
FTUS41 KRNK 202322
TAFBLF
TAF
KBLF 202322Z 2100/2124 18005KT P6SM FEW250
     FM211700 22010KT P6SM SCT250
     FM212000 21007G17KT P6SM SCT050 BKN250=

USA.gov is the U.S. government's official web portal to all federal, state and local government web resources and services.